Eddyville, New York
Current Conditions -  °F | °C
As of 6:53 PM on Monday 22 Dec 2014 (Local Time) from KPOU Reporting Station
Overcast Overcast  
Wind Chill: 38°   Ceiling: 2100
Heat Index: 38°   Visibility: 10mi
Dew Point: 32°   Wind: 3mph
Humidity: 79%   Direction: 10°N
Pressure: 30.25"   Gusts: NA
Location:  41.932°N, 74.0577°W
Report Text: KPOU 222353Z 01003KT 10SM OVC021 03/00 A3025 RMK AO2 SLP242 T00330000 10044 20028 55003
Loading
Personal Weather Stations






























Interactive Weather Map New forecast layout! Learn more

10-Day Weather Forecast

Advertisements
Track Severe Weather on mobile